Time;durP1;ratioP1;P1;durP2;ratioP2;P2;SDS_P1;SDS_P2;PMS_P1;PMS_P2;Temp;Humidity;BMP_temperature;BMP_pressure;BME280_temperature;BME280_humidity;BME280_pressure;Samples;Min_cycle;Max_cycle;Signal;HPM_P1;HPM_P2
2021/09/10 00:00:15;;;;;;;7.90;5.60;;;;;;;18.10;78.52;95791.50;5012442;28;24408;-75
2021/09/10 00:02:40;;;;;;;9.25;6.30;;;;;;;18.00;78.44;95787.25;5012687;28;24404;-76
2021/09/10 00:05:07;;;;;;;6.80;5.77;;;;;;;17.68;80.24;95788.34;5012535;28;24416;-76
2021/09/10 00:07:32;;;;;;;7.65;6.75;;;;;;;17.54;81.03;95789.63;5012485;28;24827;-75
2021/09/10 00:09:57;;;;;;;9.80;6.17;;;;;;;17.45;82.38;95794.84;5012474;28;24447;-76
2021/09/10 00:12:23;;;;;;;9.33;6.40;;;;;;;17.56;81.73;95786.84;5012201;28;24513;-76
2021/09/10 00:14:48;;;;;;;7.80;5.80;;;;;;;17.66;80.87;95795.53;5012378;28;24432;-75
2021/09/10 00:17:13;;;;;;;9.25;6.05;;;;;;;17.75;80.54;95796.47;5012116;28;24399;-76
2021/09/10 00:19:39;;;;;;;6.97;5.40;;;;;;;17.80;79.51;95796.94;5012237;28;24401;-76
2021/09/10 00:22:04;;;;;;;6.47;5.80;;;;;;;17.65;80.86;95799.94;4994649;28;24432;-76
2021/09/10 00:24:29;;;;;;;6.93;6.17;;;;;;;17.54;81.38;95796.63;5011234;28;24495;-75
2021/09/10 00:26:55;;;;;;;6.70;6.00;;;;;;;17.53;81.33;95789.75;5015419;28;24945;-75
2021/09/10 00:29:20;;;;;;;6.73;6.03;;;;;;;17.47;82.33;95798.16;5013105;28;24407;-75
2021/09/10 00:31:47;;;;;;;11.57;6.33;;;;;;;17.32;83.16;95795.94;5016542;28;24462;-75
2021/09/10 00:34:12;;;;;;;6.78;5.78;;;;;;;17.35;83.61;95797.44;4999052;28;24408;-75
2021/09/10 00:36:38;;;;;;;8.65;6.55;;;;;;;17.26;83.69;95791.25;5012963;28;24994;-75
2021/09/10 00:39:03;;;;;;;7.03;6.23;;;;;;;17.27;83.62;95797.31;5012218;28;24407;-75
2021/09/10 00:41:28;;;;;;;8.37;6.00;;;;;;;17.21;83.53;95798.69;5012019;28;24403;-75
2021/09/10 00:43:53;;;;;;;7.00;6.30;;;;;;;17.26;83.06;95798.28;5010653;28;24400;-75
2021/09/10 00:46:19;;;;;;;9.60;6.60;;;;;;;17.37;82.74;95798.16;5011522;28;25020;-76
2021/09/10 00:48:44;;;;;;;7.43;6.47;;;;;;;17.44;82.32;95801.88;5011794;28;24488;-75
2021/09/10 00:51:10;;;;;;;7.30;6.07;;;;;;;17.53;82.19;95793.19;4994073;28;24778;-75
2021/09/10 00:53:35;;;;;;;7.10;6.40;;;;;;;17.57;82.38;95793.72;5010320;28;24447;-75
2021/09/10 00:56:01;;;;;;;7.22;6.40;;;;;;;17.57;82.16;95799.78;5011362;28;24463;-75
2021/09/10 00:58:26;;;;;;;9.00;6.72;;;;;;;17.46;82.98;95801.72;5011437;28;24405;-75
2021/09/10 01:00:52;;;;;;;8.07;6.60;;;;;;;17.40;82.98;95806.56;5010271;28;24416;-75
2021/09/10 01:03:17;;;;;;;10.27;6.97;;;;;;;17.38;83.24;95799.78;5011497;28;24419;-75
2021/09/10 01:05:44;;;;;;;6.68;6.05;;;;;;;17.42;83.20;95795.94;4993787;28;24404;-75
2021/09/10 01:08:11;;;;;;;9.32;6.93;;;;;;;17.37;83.29;95798.97;5011561;28;24396;-75
2021/09/10 01:10:38;;;;;;;8.43;6.20;;;;;;;17.38;83.20;95791.94;5011304;28;24396;-76
2021/09/10 01:13:03;;;;;;;8.20;6.03;;;;;;;17.34;83.54;95785.34;5011295;28;24826;-75
2021/09/10 01:15:29;;;;;;;8.30;6.55;;;;;;;17.29;83.63;95793.59;5011042;28;24397;-76
2021/09/10 01:17:54;;;;;;;9.95;6.63;;;;;;;17.25;84.58;95788.78;5011467;28;24527;-76
2021/09/10 01:20:19;;;;;;;7.40;6.40;;;;;;;17.28;83.69;95791.97;5011309;28;24392;-76
2021/09/10 01:22:45;;;;;;;6.97;6.10;;;;;;;17.32;83.46;95787.28;5011348;28;24432;-75
2021/09/10 01:25:13;;;;;;;14.90;6.40;;;;;;;17.42;82.85;95777.59;5010638;28;24408;-75
2021/09/10 01:27:44;;;;;;;11.68;6.60;;;;;;;17.32;83.46;95790.72;5011233;28;24755;-75
2021/09/10 01:30:11;;;;;;;6.82;5.93;;;;;;;17.27;83.58;95781.59;5011045;28;24763;-76
2021/09/10 01:32:37;;;;;;;8.40;6.32;;;;;;;17.26;83.75;95774.72;5011004;28;24980;-75
2021/09/10 01:35:02;;;;;;;10.65;7.40;;;;;;;17.16;84.06;95785.19;5009638;28;24431;-75
2021/09/10 01:37:28;;;;;;;8.00;6.87;;;;;;;17.15;84.71;95786.16;5010659;28;24612;-76
2021/09/10 01:39:53;;;;;;;11.93;7.43;;;;;;;17.14;85.15;95785.31;5009635;28;24415;-75
2021/09/10 01:42:19;;;;;;;7.70;6.95;;;;;;;17.14;85.31;95787.94;5010789;28;24409;-76
2021/09/10 01:44:44;;;;;;;8.43;7.00;;;;;;;17.17;84.65;95787.69;5010878;28;24411;-76
2021/09/10 01:47:10;;;;;;;8.13;6.67;;;;;;;17.14;85.17;95784.50;5010649;28;25065;-76
2021/09/10 01:49:35;;;;;;;7.57;6.35;;;;;;;17.14;85.30;95787.13;5010930;28;25028;-75
2021/09/10 01:52:01;;;;;;;7.47;6.67;;;;;;;17.17;85.23;95789.47;5010748;28;24475;-76
2021/09/10 01:54:28;;;;;;;9.20;7.03;;;;;;;17.18;85.12;95788.50;5010539;28;24458;-76
2021/09/10 01:56:53;;;;;;;7.37;6.63;;;;;;;17.16;85.22;95786.00;5010580;28;24431;-76
2021/09/10 01:59:18;;;;;;;8.20;6.97;;;;;;;17.18;85.41;95786.72;5010676;28;25045;-76
2021/09/10 02:01:44;;;;;;;8.33;7.17;;;;;;;17.18;85.08;95789.31;5010951;28;24388;-75
2021/09/10 02:04:09;;;;;;;7.80;7.00;;;;;;;17.16;85.52;95793.84;5010676;28;24548;-76
2021/09/10 02:06:34;;;;;;;7.60;6.80;;;;;;;17.10;85.79;95791.78;5009117;28;24400;-76
2021/09/10 02:08:59;;;;;;;7.20;6.50;;;;;;;17.13;85.97;95783.69;5010531;28;24547;-75
2021/09/10 02:11:25;;;;;;;6.90;6.00;;;;;;;17.15;85.98;95789.59;5013005;28;24474;-75
2021/09/10 02:13:50;;;;;;;8.77;6.57;;;;;;;17.17;86.08;95787.69;5014575;28;24941;-75
2021/09/10 02:16:16;;;;;;;8.00;6.47;;;;;;;17.17;86.05;95787.69;5014342;28;24487;-76
2021/09/10 02:18:42;;;;;;;7.30;6.50;;;;;;;17.10;85.98;95790.97;4996949;28;24499;-76
2021/09/10 02:21:07;;;;;;;8.18;7.38;;;;;;;17.01;86.68;95786.53;5013284;28;24500;-75
2021/09/10 02:23:34;;;;;;;7.80;7.00;;;;;;;17.01;86.93;95784.75;5012965;28;24600;-75
2021/09/10 02:25:59;;;;;;;12.10;7.47;;;;;;;17.02;86.80;95785.56;5012977;28;24435;-76
2021/09/10 02:28:25;;;;;;;8.87;6.90;;;;;;;17.02;86.74;95780.34;5014322;28;24957;-76
2021/09/10 02:30:51;;;;;;;8.60;6.33;;;;;;;17.06;86.65;95784.38;5014629;28;24404;-76
2021/09/10 02:33:17;;;;;;;7.38;6.47;;;;;;;17.09;86.51;95781.44;5014175;28;24926;-76
2021/09/10 02:35:42;;;;;;;8.05;6.75;;;;;;;17.11;86.13;95779.53;5013984;28;24471;-76
2021/09/10 02:38:07;;;;;;;8.60;7.47;;;;;;;17.13;86.22;95775.84;5014185;28;24444;-76
2021/09/10 02:40:33;;;;;;;8.33;6.93;;;;;;;17.12;85.74;95779.38;5014146;28;24827;-75
2021/09/10 02:42:58;;;;;;;9.07;6.95;;;;;;;17.06;86.00;95779.13;4996427;28;24483;-76
2021/09/10 02:45:24;;;;;;;7.60;6.80;;;;;;;17.03;86.18;95779.41;5013220;28;24467;-76
2021/09/10 02:47:49;;;;;;;8.87;7.27;;;;;;;17.01;86.53;95783.91;5014009;28;24388;-76
2021/09/10 02:50:14;;;;;;;8.63;6.83;;;;;;;16.94;87.59;95775.78;5013985;28;24451;-75
2021/09/10 02:52:40;;;;;;;8.43;6.43;;;;;;;16.95;87.59;95779.25;4996016;28;24428;-76
2021/09/10 02:55:07;;;;;;;7.80;6.67;;;;;;;16.95;87.72;95771.41;5014070;28;24398;-76
2021/09/10 02:57:33;;;;;;;6.90;6.05;;;;;;;16.92;87.73;95769.88;5013839;28;24390;-76
2021/09/10 02:59:58;;;;;;;7.50;6.28;;;;;;;16.93;87.85;95779.38;5013863;28;24823;-76
2021/09/10 03:02:24;;;;;;;7.77;7.00;;;;;;;16.90;87.70;95777.00;5012705;28;24396;-76
2021/09/10 03:04:49;;;;;;;10.67;6.33;;;;;;;16.89;87.83;95786.66;5012357;28;25125;-76
2021/09/10 03:07:15;;;;;;;7.17;6.47;;;;;;;16.90;88.03;95779.63;5013412;28;24404;-76
2021/09/10 03:09:41;;;;;;;6.97;6.28;;;;;;;16.89;87.75;95783.22;5012389;28;24458;-76
2021/09/10 03:12:06;;;;;;;8.23;6.47;;;;;;;16.87;87.82;95774.66;5013562;28;24424;-76
2021/09/10 03:14:32;;;;;;;9.57;6.80;;;;;;;16.85;87.96;95766.13;5013501;28;24400;-76
2021/09/10 03:16:58;;;;;;;7.53;6.73;;;;;;;16.82;88.00;95769.03;5012176;28;24495;-76
2021/09/10 03:19:26;;;;;;;7.15;6.45;;;;;;;16.80;88.13;95770.97;5013493;28;24488;-76
2021/09/10 03:21:52;;;;;;;7.25;6.55;;;;;;;16.82;87.96;95772.47;5012116;28;24486;-76
2021/09/10 03:24:18;;;;;;;8.02;6.63;;;;;;;16.77;88.36;95774.66;5023329;28;24432;-76
2021/09/10 03:26:43;;;;;;;8.50;6.53;;;;;;;16.77;88.56;95773.84;5030061;28;24472;-76
2021/09/10 03:29:09;;;;;;;7.53;6.32;;;;;;;16.71;88.93;95767.31;5042225;28;24547;-76
2021/09/10 03:31:34;;;;;;;9.32;6.90;;;;;;;16.69;88.80;95764.84;5033071;28;24579;-76
2021/09/10 03:34:00;;;;;;;7.30;6.60;;;;;;;16.66;89.24;95770.34;5026364;28;24419;-76
2021/09/10 03:36:27;;;;;;;8.07;6.80;;;;;;;16.62;89.90;95770.75;5025273;28;24396;-76
2021/09/10 03:38:52;;;;;;;7.70;6.40;;;;;;;16.59;90.34;95763.16;5019618;28;24408;-75
2021/09/10 03:41:17;;;;;;;7.80;6.70;;;;;;;16.52;91.60;95756.81;5032358;28;24423;-76
2021/09/10 03:43:44;;;;;;;7.53;6.70;;;;;;;16.49;91.74;95760.50;5031600;28;24991;-76
2021/09/10 03:46:10;;;;;;;8.07;6.38;;;;;;;16.48;91.99;95758.84;5030526;28;24458;-76
2021/09/10 03:48:35;;;;;;;11.97;6.90;;;;;;;16.50;91.84;95756.94;5014990;28;24412;-76
2021/09/10 03:51:00;;;;;;;12.37;6.67;;;;;;;16.54;91.64;95754.88;5021435;28;24404;-76
2021/09/10 03:53:26;;;;;;;6.88;6.18;;;;;;;16.56;91.68;95742.50;5032646;28;24477;-76
2021/09/10 03:55:51;;;;;;;7.37;5.90;;;;;;;16.72;91.64;95749.81;5032516;28;24400;-76
2021/09/10 03:58:17;;;;;;;8.05;6.22;;;;;;;16.51;93.18;95753.38;5011563;28;24508;-76
2021/09/10 04:00:42;;;;;;;8.80;6.77;;;;;;;16.37;94.42;95753.72;5025840;28;24439;-77
2021/09/10 04:03:07;;;;;;;7.33;6.40;;;;;;;16.40;93.79;95756.09;5032412;28;24457;-76
2021/09/10 04:05:33;;;;;;;7.97;6.57;;;;;;;16.46;93.46;95760.75;5030278;28;24496;-76
2021/09/10 04:07:58;;;;;;;7.43;6.47;;;;;;;16.30;95.56;95753.41;5032218;28;24426;-76
2021/09/10 04:10:23;;;;;;;8.07;6.83;;;;;;;16.23;96.08;95752.28;5032337;28;24450;-76
2021/09/10 04:12:49;;;;;;;11.67;7.50;;;;;;;16.09;95.84;95753.50;5032011;28;24422;-76
2021/09/10 04:15:14;;;;;;;8.57;7.60;;;;;;;16.04;96.47;95753.03;5030588;28;24431;-76
2021/09/10 04:17:39;;;;;;;11.40;7.35;;;;;;;16.14;96.01;95758.31;5031883;28;24998;-76
2021/09/10 04:20:05;;;;;;;7.60;6.10;;;;;;;16.23;95.58;95751.47;5032056;28;24407;-76
2021/09/10 04:22:30;;;;;;;8.30;7.40;;;;;;;16.47;94.26;95751.97;5031817;28;24515;-77
2021/09/10 04:24:56;;;;;;;9.00;7.10;;;;;;;16.49;93.97;95755.28;5031954;28;24404;-76
2021/09/10 04:27:21;;;;;;;7.97;7.13;;;;;;;16.31;95.47;95751.63;5031747;28;24400;-76
2021/09/10 04:29:46;;;;;;;11.70;7.23;;;;;;;16.15;96.65;95747.72;5030697;28;24564;-76
2021/09/10 04:32:11;;;;;;;10.00;7.40;;;;;;;16.10;96.91;95749.91;5031511;28;24980;-76
2021/09/10 04:34:37;;;;;;;8.77;7.10;;;;;;;16.15;96.32;95749.50;5027833;28;24463;-78
2021/09/10 04:37:02;;;;;;;9.10;7.57;;;;;;;16.24;95.65;95751.34;5036556;28;24458;-77
2021/09/10 04:39:28;;;;;;;12.40;7.95;;;;;;;16.32;95.40;95748.91;5021038;28;24403;-79
2021/09/10 04:41:53;;;;;;;9.43;7.53;;;;;;;16.29;95.29;95746.53;5035618;28;24400;-76
2021/09/10 04:44:18;;;;;;;10.63;7.63;;;;;;;16.31;95.09;95756.84;5032013;28;24498;-76
2021/09/10 04:46:44;;;;;;;11.67;8.43;;;;;;;16.16;96.33;95757.22;5031614;28;24850;-76
2021/09/10 04:49:09;;;;;;;9.80;8.10;;;;;;;16.05;97.77;95759.09;5031570;28;24459;-77
2021/09/10 04:51:34;;;;;;;11.70;7.78;;;;;;;16.00;98.08;95763.88;5030346;28;24487;-76
2021/09/10 04:54:00;;;;;;;11.83;7.67;;;;;;;15.97;96.89;95759.72;5031107;28;24432;-74
2021/09/10 04:56:26;;;;;;;11.70;7.47;;;;;;;15.93;96.97;95758.34;5031276;28;25017;-75
2021/09/10 04:58:51;;;;;;;7.57;6.73;;;;;;;15.80;97.89;95762.97;5031484;28;24479;-76
2021/09/10 05:01:17;;;;;;;10.48;7.35;;;;;;;15.84;98.16;95762.56;5013640;28;24459;-76
2021/09/10 05:03:42;;;;;;;8.73;7.40;;;;;;;15.94;97.50;95754.75;5030925;28;24416;-76
2021/09/10 05:06:07;;;;;;;9.83;6.77;;;;;;;15.97;97.28;95757.13;5023356;28;24401;-76
2021/09/10 05:08:33;;;;;;;9.30;6.90;;;;;;;16.00;96.88;95763.88;5020391;28;24843;-76
2021/09/10 05:10:58;;;;;;;7.67;6.70;;;;;;;16.06;96.70;95755.53;5042980;28;24416;-75
2021/09/10 05:13:23;;;;;;;9.00;7.57;;;;;;;16.08;96.74;95762.25;5023191;28;24957;-76
2021/09/10 05:15:49;;;;;;;7.60;6.87;;;;;;;16.12;96.46;95770.66;5029558;28;24526;-76
2021/09/10 05:18:14;;;;;;;8.73;6.97;;;;;;;16.11;96.56;95766.41;5031120;28;24439;-76
2021/09/10 05:20:40;;;;;;;7.72;6.78;;;;;;;16.13;96.40;95764.47;5030992;28;24423;-76
2021/09/10 05:23:05;;;;;;;10.45;6.95;;;;;;;16.15;95.95;95768.63;5030927;28;24754;-76
2021/09/10 05:25:31;;;;;;;8.43;7.50;;;;;;;16.18;95.74;95765.75;5031342;28;24388;-75
2021/09/10 05:27:56;;;;;;;8.60;6.75;;;;;;;16.25;95.77;95763.44;5029719;28;24423;-76
2021/09/10 05:30:22;;;;;;;10.63;7.10;;;;;;;16.34;95.23;95772.28;5029673;28;24419;-77
2021/09/10 05:32:47;;;;;;;8.00;6.90;;;;;;;16.34;94.95;95777.50;5030861;28;24638;-76
2021/09/10 05:35:14;;;;;;;8.73;7.30;;;;;;;16.35;94.38;95779.16;5029878;28;24442;-77
2021/09/10 05:37:40;;;;;;;8.20;6.68;;;;;;;16.28;93.61;95772.78;5031053;28;24415;-75
2021/09/10 05:40:06;;;;;;;8.60;7.38;;;;;;;16.07;95.79;95780.69;5009808;28;25040;-76
2021/09/10 05:42:31;;;;;;;9.55;6.55;;;;;;;16.12;95.36;95779.31;5024072;28;24395;-76
2021/09/10 05:44:57;;;;;;;8.40;6.50;;;;;;;16.21;94.51;95789.00;5027919;28;24980;-76
2021/09/10 05:47:22;;;;;;;8.47;6.97;;;;;;;16.25;94.32;95786.16;5022948;28;24417;-77
2021/09/10 05:49:47;;;;;;;10.63;7.47;;;;;;;16.17;95.39;95779.78;5029574;28;24487;-80
2021/09/10 05:52:13;;;;;;;9.70;7.80;;;;;;;16.18;94.90;95778.00;5036836;28;24987;-81
2021/09/10 05:54:38;;;;;;;9.00;7.23;;;;;;;16.18;94.69;95781.44;5038168;28;24422;-81
2021/09/10 05:57:04;;;;;;;9.17;6.50;;;;;;;16.24;94.61;95779.25;5031817;28;24423;-79
2021/09/10 05:59:30;;;;;;;8.80;7.70;;;;;;;16.33;94.14;95778.47;5032717;28;24491;-79
2021/09/10 06:01:55;;;;;;;8.63;7.73;;;;;;;16.40;94.50;95785.66;5028600;28;24788;-77
2021/09/10 06:04:21;;;;;;;7.80;7.00;;;;;;;16.51;93.45;95782.13;5019765;28;24502;-77
2021/09/10 06:06:46;;;;;;;8.90;7.82;;;;;;;16.60;93.04;95794.38;5012591;28;24404;-77
2021/09/10 06:09:11;;;;;;;13.43;7.57;;;;;;;16.70;92.62;95789.19;5030761;28;24415;-77
2021/09/10 06:11:37;;;;;;;10.30;7.80;;;;;;;16.70;92.03;95790.03;5017286;28;24534;-77
2021/09/10 06:14:02;;;;;;;10.67;7.30;;;;;;;16.78;91.06;95796.41;5030807;28;24499;-77
2021/09/10 06:16:27;;;;;;;10.33;7.27;;;;;;;16.85;89.57;95787.88;5051558;28;24808;-77
2021/09/10 06:18:53;;;;;;;9.60;7.63;;;;;;;16.83;89.52;95788.97;5033647;28;24415;-76
2021/09/10 06:21:18;;;;;;;7.83;7.03;;;;;;;16.79;89.89;95790.22;5030847;28;25003;-77
2021/09/10 06:23:43;;;;;;;7.70;7.00;;;;;;;16.90;89.77;95795.31;5031844;28;24824;-77
2021/09/10 06:26:10;;;;;;;9.40;7.37;;;;;;;16.99;89.47;95780.63;5040325;28;24518;-77
2021/09/10 06:28:36;;;;;;;8.43;7.03;;;;;;;17.03;88.53;95779.41;5030057;28;24408;-77
2021/09/10 06:31:01;;;;;;;11.17;7.53;;;;;;;17.03;88.79;95784.63;5030268;28;24422;-76
2021/09/10 06:33:26;;;;;;;10.90;7.47;;;;;;;16.93;89.36;95795.06;5040911;28;24516;-77
2021/09/10 06:35:52;;;;;;;7.43;6.67;;;;;;;17.06;88.46;95792.22;5014067;28;24855;-77
2021/09/10 06:38:17;;;;;;;10.23;7.20;;;;;;;17.21;88.15;95785.63;5011114;28;24495;-77
2021/09/10 06:40:42;;;;;;;9.00;7.30;;;;;;;17.31;87.75;95785.59;5013632;28;24397;-77
2021/09/10 06:43:08;;;;;;;9.50;7.57;;;;;;;17.30;87.96;95786.56;5010510;28;25088;-77
2021/09/10 06:45:34;;;;;;;12.32;7.70;;;;;;;17.23;88.01;95791.53;4991164;28;24480;-77
2021/09/10 06:47:59;;;;;;;10.43;7.88;;;;;;;17.40;87.88;95792.66;5003954;28;24464;-77
2021/09/10 06:50:25;;;;;;;8.90;7.03;;;;;;;17.59;85.84;95791.81;4996850;28;24767;-78
2021/09/10 06:52:50;;;;;;;9.00;7.57;;;;;;;17.66;85.94;95788.50;5012333;28;24428;-77
2021/09/10 06:55:16;;;;;;;7.83;7.03;;;;;;;17.70;84.84;95790.84;5016481;28;24938;-76
2021/09/10 06:57:41;;;;;;;7.70;6.90;;;;;;;17.84;84.45;95791.28;5032083;28;24407;-76
2021/09/10 07:00:08;;;;;;;9.43;7.07;;;;;;;17.89;84.72;95788.22;5037669;28;24420;-78
2021/09/10 07:02:33;;;;;;;8.13;6.45;;;;;;;17.90;83.87;95789.88;5038496;28;24491;-77
2021/09/10 07:04:58;;;;;;;10.47;6.87;;;;;;;17.93;84.90;95799.25;5035810;28;24535;-79
2021/09/10 07:07:24;;;;;;;8.17;7.10;;;;;;;18.05;84.33;95800.72;5038019;28;24399;-78
2021/09/10 07:09:50;;;;;;;9.97;6.63;;;;;;;18.18;82.71;95800.44;5036943;28;24909;-78
2021/09/10 07:12:17;;;;;;;8.32;6.65;;;;;;;18.02;83.31;95799.25;5035023;28;24416;-77
2021/09/10 07:14:42;;;;;;;12.40;6.35;;;;;;;17.87;85.07;95796.25;5035755;28;24447;-78
2021/09/10 07:17:08;;;;;;;9.23;6.80;;;;;;;17.93;84.60;95799.25;5035179;28;24980;-77
2021/09/10 07:19:33;;;;;;;8.03;7.23;;;;;;;17.84;84.88;95811.41;5036325;28;24526;-78
2021/09/10 07:21:59;;;;;;;7.90;6.80;;;;;;;17.86;85.76;95809.47;5036418;28;24460;-78
2021/09/10 07:24:24;;;;;;;13.83;7.23;;;;;;;17.80;86.54;95810.03;5035110;28;24427;-78
2021/09/10 07:26:51;;;;;;;7.40;6.70;;;;;;;17.72;86.84;95810.69;5034650;28;24407;-78
2021/09/10 07:29:19;;;;;;;8.17;7.07;;;;;;;17.76;87.05;95809.50;5017953;28;24412;-79
2021/09/10 07:31:45;;;;;;;9.50;7.18;;;;;;;17.81;87.88;95811.69;5035096;28;24499;-78
2021/09/10 07:34:10;;;;;;;8.60;7.17;;;;;;;17.82;87.37;95811.53;5036051;28;24415;-76
2021/09/10 07:36:36;;;;;;;8.87;6.73;;;;;;;17.92;87.29;95813.31;5018751;28;24412;-82
2021/09/10 07:39:01;;;;;;;9.80;7.90;;;;;;;17.95;86.20;95819.13;5018407;28;24500;-78
2021/09/10 07:41:26;;;;;;;12.20;7.23;;;;;;;18.04;86.76;95818.25;5034240;28;24412;-77
2021/09/10 07:43:52;;;;;;;8.38;7.10;;;;;;;18.13;86.23;95817.44;5035024;28;24423;-78
2021/09/10 07:46:17;;;;;;;7.20;6.50;;;;;;;18.35;85.90;95823.28;5035022;28;24491;-78
2021/09/10 07:48:42;;;;;;;10.40;6.90;;;;;;;18.42;84.07;95819.13;5018611;28;24817;-78
2021/09/10 07:51:08;;;;;;;9.10;7.20;;;;;;;18.48;83.45;95825.59;5034526;28;24866;-76
2021/09/10 07:53:33;;;;;;;7.93;7.00;;;;;;;18.48;82.92;95826.41;5032788;28;24423;-76
2021/09/10 07:55:58;;;;;;;7.80;6.77;;;;;;;18.62;83.18;95828.56;5033942;28;24519;-77
2021/09/10 07:58:24;;;;;;;8.67;6.33;;;;;;;18.58;82.43;95836.88;5031639;28;24423;-78
2021/09/10 08:00:49;;;;;;;7.20;6.50;;;;;;;18.65;82.51;95837.13;5032584;28;24486;-77
2021/09/10 08:03:15;;;;;;;7.17;6.47;;;;;;;18.57;82.61;95837.84;5034258;28;24407;-78
2021/09/10 08:05:40;;;;;;;9.27;6.77;;;;;;;18.68;82.67;95834.22;5032492;28;24496;-77
2021/09/10 08:08:06;;;;;;;7.70;6.43;;;;;;;18.75;82.83;95830.88;5032305;28;24813;-75
2021/09/10 08:10:31;;;;;;;12.23;7.33;;;;;;;18.80;82.02;95836.56;5032876;28;24403;-76
2021/09/10 08:12:57;;;;;;;6.80;6.00;;;;;;;18.88;81.90;95840.25;5034170;28;24412;-72
2021/09/10 08:15:22;;;;;;;8.87;6.77;;;;;;;18.85;81.70;95843.97;5032352;28;24395;-72
2021/09/10 08:17:47;;;;;;;7.27;6.57;;;;;;;18.96;81.86;95848.22;5032105;28;24395;-75
2021/09/10 08:20:13;;;;;;;7.47;6.70;;;;;;;18.94;80.97;95843.09;5032300;28;24434;-75
2021/09/10 08:22:39;;;;;;;9.10;6.83;;;;;;;18.88;81.90;95845.50;5032655;28;24487;-77
2021/09/10 08:25:06;;;;;;;8.02;6.25;;;;;;;18.96;82.17;95846.41;5031031;28;24408;-78
2021/09/10 08:27:32;;;;;;;7.40;6.57;;;;;;;19.03;83.82;95855.34;5032624;28;24391;-77
2021/09/10 08:29:58;;;;;;;9.13;6.87;;;;;;;19.10;82.81;95855.59;5031616;28;24781;-78
2021/09/10 08:32:24;;;;;;;8.82;6.82;;;;;;;19.16;80.80;95862.03;5031543;28;24454;-76
2021/09/10 08:34:50;;;;;;;13.98;6.45;;;;;;;19.21;81.15;95862.44;5001600;28;24425;-75
2021/09/10 08:37:16;;;;;;;8.05;6.55;;;;;;;19.20;80.41;95864.22;5031136;28;24436;-76
2021/09/10 08:39:41;;;;;;;19.10;6.60;;;;;;;19.27;80.80;95864.47;5014359;28;24408;-76
2021/09/10 08:42:07;;;;;;;7.70;6.47;;;;;;;19.29;80.44;95875.66;5030833;28;24408;-76
2021/09/10 08:44:34;;;;;;;8.27;6.57;;;;;;;19.35;79.18;95872.44;5031564;28;24432;-76
2021/09/10 08:46:59;;;;;;;10.55;6.50;;;;;;;19.34;77.31;95873.41;5010531;28;24510;-78
2021/09/10 08:49:25;;;;;;;11.07;6.47;;;;;;;19.39;76.22;95868.53;5016803;28;24541;-77
2021/09/10 08:51:50;;;;;;;9.93;6.57;;;;;;;19.56;78.06;95872.97;5011868;28;24476;-78
2021/09/10 08:54:17;;;;;;;13.17;6.53;;;;;;;19.64;76.92;95867.00;5031369;28;24455;-78
2021/09/10 08:56:43;;;;;;;7.47;6.32;;;;;;;19.88;75.98;95876.94;5031387;28;25031;-77
2021/09/10 08:59:16;;;;;;;12.90;6.82;;;;;;;19.82;76.14;95877.53;5032966;28;24519;-78
2021/09/10 09:01:48;;;;;;;6.97;6.15;;;;;;;20.00;74.34;95870.47;5033984;28;24395;-80
2021/09/10 09:04:14;;;;;;;11.57;5.90;;;;;;;20.14;75.61;95871.72;5032689;28;24428;-80
2021/09/10 09:06:39;;;;;;;9.23;6.32;;;;;;;20.28;73.74;95871.19;5032573;28;24407;-79
2021/09/10 09:09:04;;;;;;;6.37;5.77;;;;;;;20.33;72.24;95875.16;5032940;28;24810;-78
2021/09/10 09:11:30;;;;;;;7.87;6.30;;;;;;;20.24;72.49;95871.63;5010558;28;24768;-78
2021/09/10 09:13:56;;;;;;;6.63;5.90;;;;;;;20.39;72.79;95877.16;5020859;28;24420;-77
2021/09/10 09:16:32;;;;;;;7.22;5.93;;;;;;;20.38;72.47;95873.69;5040356;28;24445;-78
2021/09/10 09:19:00;;;;;;;10.90;6.07;;;;;;;20.42;71.77;95871.59;5041974;28;24411;-78
2021/09/10 09:21:30;;;;;;;7.10;6.40;;;;;;;20.20;72.68;95870.28;5030308;28;24856;-78
2021/09/10 09:23:58;;;;;;;14.43;6.68;;;;;;;20.25;73.30;95875.91;5023869;28;24458;-77
2021/09/10 09:26:28;;;;;;;8.32;5.97;;;;;;;20.44;74.62;95872.25;5017337;28;24396;-77
2021/09/10 09:29:03;;;;;;;11.02;6.30;;;;;;;20.76;73.16;95876.91;5031477;28;24715;-77
2021/09/10 09:31:28;;;;;;;7.13;6.40;;;;;;;20.78;74.31;95869.69;5036683;28;24519;-77
2021/09/10 09:33:53;;;;;;;12.03;6.87;;;;;;;20.81;71.49;95869.38;5034640;28;24420;-76
2021/09/10 09:36:19;;;;;;;10.30;6.53;;;;;;;20.99;71.86;95875.41;5030712;28;24518;-77
2021/09/10 09:38:45;;;;;;;8.32;6.43;;;;;;;21.06;70.81;95875.56;5031266;28;24442;-77
2021/09/10 09:41:16;;;;;;;7.65;6.57;;;;;;;21.05;70.32;95873.91;5024287;28;24463;-77
2021/09/10 09:43:48;;;;;;;9.38;6.45;;;;;;;21.18;70.52;95878.75;5030409;28;24399;-77
2021/09/10 09:46:16;;;;;;;7.10;6.40;;;;;;;21.11;69.59;95880.38;5001968;28;24475;-77
2021/09/10 09:48:43;;;;;;;7.72;6.50;;;;;;;21.15;69.43;95881.72;5024646;28;24969;-77
2021/09/10 09:51:10;;;;;;;6.53;5.93;;;;;;;21.14;69.14;95880.06;5030407;28;24458;-77
2021/09/10 09:53:36;;;;;;;7.45;5.90;;;;;;;20.93;68.70;95878.66;5029977;28;24450;-76
2021/09/10 09:56:03;;;;;;;7.95;5.80;;;;;;;20.86;69.47;95871.53;5019580;28;25000;-77
2021/09/10 09:58:30;;;;;;;8.70;6.40;;;;;;;20.89;70.32;95881.75;5017573;28;24423;-76
2021/09/10 10:00:56;;;;;;;8.95;6.30;;;;;;;21.10;70.45;95879.56;5025575;28;24516;-77
2021/09/10 10:03:21;;;;;;;9.73;6.30;;;;;;;21.40;69.35;95874.75;5010642;28;24511;-77
2021/09/10 10:05:54;;;;;;;10.97;6.77;;;;;;;21.74;68.46;95869.38;5029984;28;24423;-77
2021/09/10 10:08:25;;;;;;;6.97;6.07;;;;;;;22.09;69.94;95880.59;5030490;28;24410;-77
2021/09/10 10:10:56;;;;;;;7.22;6.25;;;;;;;22.29;68.62;95865.31;5030114;28;24454;-77
2021/09/10 10:13:26;;;;;;;7.53;5.22;;;;;;;22.82;67.15;95864.69;5029997;28;24530;-77
2021/09/10 10:15:52;;;;;;;6.95;5.95;;;;;;;22.77;64.23;95866.19;5024099;28;24762;-77
2021/09/10 10:18:40;;;;;;;7.50;5.95;;;;;;;22.58;61.23;95859.47;5010422;28;24843;-77
2021/09/10 10:21:10;;;;;;;8.87;5.53;;;;;;;22.36;62.06;95864.47;5014727;28;24416;-77
2021/09/10 10:23:42;;;;;;;5.95;5.13;;;;;;;22.36;62.58;95855.72;5010384;28;24938;-77
2021/09/10 10:26:18;;;;;;;7.50;4.97;;;;;;;22.42;60.52;95850.59;5008956;28;24428;-77
2021/09/10 10:28:44;;;;;;;11.82;5.07;;;;;;;22.46;60.67;95854.53;5025580;28;24435;-77
2021/09/10 10:31:10;;;;;;;5.13;4.65;;;;;;;22.71;60.64;95863.22;5030253;28;24399;-77
2021/09/10 10:33:47;;;;;;;7.07;4.80;;;;;;;22.63;60.00;95857.16;5033650;28;24403;-77
2021/09/10 10:36:36;;;;;;;14.40;5.40;;;;;;;22.63;59.08;95857.16;5033888;28;24400;-77
2021/09/10 10:39:07;;;;;;;11.77;5.03;;;;;;;22.57;59.07;95861.28;5034267;28;24411;-77
2021/09/10 10:41:46;;;;;;;5.60;4.93;;;;;;;22.61;61.21;95851.22;5033835;28;24427;-77
2021/09/10 10:44:30;;;;;;;5.30;4.70;;;;;;;22.87;60.10;95859.72;5033693;28;24416;-77
2021/09/10 10:47:18;;;;;;;6.20;5.23;;;;;;;22.84;59.29;95854.81;5045109;28;24526;-77
2021/09/10 10:49:49;;;;;;;5.88;4.97;;;;;;;22.77;60.89;95850.34;5052223;28;24437;-77
2021/09/10 10:52:23;;;;;;;7.90;5.63;;;;;;;22.66;60.14;95849.72;5053549;28;24515;-77
2021/09/10 10:55:26;;;;;;;9.10;7.47;;;;;;;22.58;60.52;95844.47;5052964;28;24975;-77
2021/09/10 10:58:24;;;;;;;8.43;5.93;;;;;;;22.66;61.93;95838.34;5032313;28;24438;-77
2021/09/10 11:00:52;;;;;;;6.90;5.77;;;;;;;22.89;60.32;95846.34;5032238;28;24411;-77
2021/09/10 11:03:17;;;;;;;5.90;5.30;;;;;;;22.86;60.65;95838.78;5033844;28;24431;-75
2021/09/10 11:05:44;;;;;;;5.20;4.50;;;;;;;22.85;59.55;95845.88;5033152;28;24400;-77
2021/09/10 11:08:11;;;;;;;6.85;5.32;;;;;;;22.71;61.10;95842.13;5032324;28;24403;-76
2021/09/10 11:10:36;;;;;;;5.73;5.07;;;;;;;22.75;59.82;95847.88;5015832;28;24434;-77
2021/09/10 11:13:02;;;;;;;6.50;4.90;;;;;;;22.58;60.77;95838.34;5032041;28;24436;-77
2021/09/10 11:15:30;;;;;;;6.70;5.05;;;;;;;22.50;61.69;95838.38;5031901;28;24535;-75
2021/09/10 11:17:58;;;;;;;5.40;4.75;;;;;;;22.22;61.45;95834.31;5033339;28;24735;-75
2021/09/10 11:20:25;;;;;;;6.28;5.07;;;;;;;22.29;62.86;95839.75;5032709;28;24507;-76
2021/09/10 11:22:50;;;;;;;7.15;5.15;;;;;;;22.29;60.64;95833.66;5028671;28;24420;-76
2021/09/10 11:25:16;;;;;;;5.43;4.83;;;;;;;22.53;64.41;95838.88;5034239;28;24430;-76
2021/09/10 11:27:41;;;;;;;6.13;4.70;;;;;;;22.65;61.86;95837.50;5032613;28;24469;-76